sensor_id;sensor_type;location;lat;lon;timestamp;P1;durP1;ratioP1;P2;durP2;ratioP2
20411;SDS011;10365;52.578;8.138;2023-09-12T00:00:37;50.47;;;36.58;;
20411;SDS011;10365;52.578;8.138;2023-09-12T00:03:02;55.47;;;39.38;;
20411;SDS011;10365;52.578;8.138;2023-09-12T00:05:28;58.30;;;39.42;;
20411;SDS011;10365;52.578;8.138;2023-09-12T00:07:53;59.28;;;37.65;;
20411;SDS011;10365;52.578;8.138;2023-09-12T00:10:19;59.67;;;36.97;;
20411;SDS011;10365;52.578;8.138;2023-09-12T00:12:44;54.42;;;36.05;;
20411;SDS011;10365;52.578;8.138;2023-09-12T00:15:10;53.10;;;34.28;;
20411;SDS011;10365;52.578;8.138;2023-09-12T00:17:35;52.90;;;34.58;;
20411;SDS011;10365;52.578;8.138;2023-09-12T00:20:01;54.45;;;35.92;;
20411;SDS011;10365;52.578;8.138;2023-09-12T00:22:26;50.05;;;34.85;;
20411;SDS011;10365;52.578;8.138;2023-09-12T00:24:51;53.80;;;36.63;;
20411;SDS011;10365;52.578;8.138;2023-09-12T00:27:17;57.53;;;37.03;;
20411;SDS011;10365;52.578;8.138;2023-09-12T00:29:42;61.17;;;39.47;;
20411;SDS011;10365;52.578;8.138;2023-09-12T00:32:07;58.45;;;39.33;;
20411;SDS011;10365;52.578;8.138;2023-09-12T00:34:33;56.25;;;37.70;;
20411;SDS011;10365;52.578;8.138;2023-09-12T00:36:58;60.55;;;39.22;;
20411;SDS011;10365;52.578;8.138;2023-09-12T00:39:23;61.22;;;40.50;;
20411;SDS011;10365;52.578;8.138;2023-09-12T00:41:49;59.15;;;39.45;;
20411;SDS011;10365;52.578;8.138;2023-09-12T00:44:14;52.38;;;38.67;;
20411;SDS011;10365;52.578;8.138;2023-09-12T00:46:40;58.47;;;38.42;;
20411;SDS011;10365;52.578;8.138;2023-09-12T00:49:07;59.42;;;37.35;;
20411;SDS011;10365;52.578;8.138;2023-09-12T00:51:33;59.55;;;38.75;;
20411;SDS011;10365;52.578;8.138;2023-09-12T00:53:59;55.85;;;38.05;;
20411;SDS011;10365;52.578;8.138;2023-09-12T00:56:25;60.83;;;40.30;;
20411;SDS011;10365;52.578;8.138;2023-09-12T00:58:51;65.50;;;41.90;;
20411;SDS011;10365;52.578;8.138;2023-09-12T01:01:18;65.55;;;40.67;;
20411;SDS011;10365;52.578;8.138;2023-09-12T01:03:44;66.78;;;41.63;;
20411;SDS011;10365;52.578;8.138;2023-09-12T01:06:09;65.32;;;42.58;;
20411;SDS011;10365;52.578;8.138;2023-09-12T01:08:36;67.55;;;43.72;;
20411;SDS011;10365;52.578;8.138;2023-09-12T01:11:04;68.07;;;42.45;;
20411;SDS011;10365;52.578;8.138;2023-09-12T01:13:30;61.70;;;43.53;;
20411;SDS011;10365;52.578;8.138;2023-09-12T01:15:56;68.03;;;43.85;;
20411;SDS011;10365;52.578;8.138;2023-09-12T01:18:22;71.15;;;44.53;;
20411;SDS011;10365;52.578;8.138;2023-09-12T01:28:39;68.95;;;45.28;;
20411;SDS011;10365;52.578;8.138;2023-09-12T01:31:08;72.95;;;46.42;;
20411;SDS011;10365;52.578;8.138;2023-09-12T01:33:33;65.78;;;42.47;;
20411;SDS011;10365;52.578;8.138;2023-09-12T01:35:59;70.65;;;45.40;;
20411;SDS011;10365;52.578;8.138;2023-09-12T01:38:24;79.30;;;47.95;;
20411;SDS011;10365;52.578;8.138;2023-09-12T01:40:50;76.13;;;45.55;;
20411;SDS011;10365;52.578;8.138;2023-09-12T01:43:17;70.63;;;46.13;;
20411;SDS011;10365;52.578;8.138;2023-09-12T01:45:44;75.70;;;46.63;;
20411;SDS011;10365;52.578;8.138;2023-09-12T01:48:10;82.43;;;46.85;;
20411;SDS011;10365;52.578;8.138;2023-09-12T01:50:36;76.75;;;48.33;;
20411;SDS011;10365;52.578;8.138;2023-09-12T01:53:02;69.00;;;45.58;;
20411;SDS011;10365;52.578;8.138;2023-09-12T01:55:28;77.55;;;46.72;;
20411;SDS011;10365;52.578;8.138;2023-09-12T01:57:53;74.13;;;47.17;;
20411;SDS011;10365;52.578;8.138;2023-09-12T02:00:19;77.50;;;47.75;;
20411;SDS011;10365;52.578;8.138;2023-09-12T02:02:47;74.07;;;46.53;;
20411;SDS011;10365;52.578;8.138;2023-09-12T02:07:38;79.40;;;50.22;;
20411;SDS011;10365;52.578;8.138;2023-09-12T02:10:04;88.40;;;49.67;;
20411;SDS011;10365;52.578;8.138;2023-09-12T02:12:31;87.88;;;50.30;;
20411;SDS011;10365;52.578;8.138;2023-09-12T02:14:57;93.70;;;53.38;;
20411;SDS011;10365;52.578;8.138;2023-09-12T02:17:22;86.32;;;51.72;;
20411;SDS011;10365;52.578;8.138;2023-09-12T02:19:48;88.72;;;54.10;;
20411;SDS011;10365;52.578;8.138;2023-09-12T02:22:14;84.28;;;51.72;;
20411;SDS011;10365;52.578;8.138;2023-09-12T02:24:39;87.32;;;54.50;;
20411;SDS011;10365;52.578;8.138;2023-09-12T02:27:05;90.20;;;53.53;;
20411;SDS011;10365;52.578;8.138;2023-09-12T02:29:30;93.72;;;55.40;;
20411;SDS011;10365;52.578;8.138;2023-09-12T02:31:58;98.03;;;56.13;;
20411;SDS011;10365;52.578;8.138;2023-09-12T02:34:23;91.22;;;55.42;;
20411;SDS011;10365;52.578;8.138;2023-09-12T02:36:49;103.22;;;58.30;;
20411;SDS011;10365;52.578;8.138;2023-09-12T02:39:14;102.93;;;58.08;;
20411;SDS011;10365;52.578;8.138;2023-09-12T02:41:39;103.50;;;58.67;;
20411;SDS011;10365;52.578;8.138;2023-09-12T02:44:05;95.35;;;55.20;;
20411;SDS011;10365;52.578;8.138;2023-09-12T02:46:30;105.35;;;59.15;;
20411;SDS011;10365;52.578;8.138;2023-09-12T02:48:56;99.25;;;55.92;;
20411;SDS011;10365;52.578;8.138;2023-09-12T02:51:21;104.72;;;56.50;;
20411;SDS011;10365;52.578;8.138;2023-09-12T02:53:47;115.85;;;60.97;;
20411;SDS011;10365;52.578;8.138;2023-09-12T02:56:12;107.25;;;56.47;;
20411;SDS011;10365;52.578;8.138;2023-09-12T02:58:38;103.35;;;58.55;;
20411;SDS011;10365;52.578;8.138;2023-09-12T03:01:03;109.28;;;60.38;;
20411;SDS011;10365;52.578;8.138;2023-09-12T03:03:31;104.57;;;57.60;;
20411;SDS011;10365;52.578;8.138;2023-09-12T03:06:00;117.25;;;58.85;;
20411;SDS011;10365;52.578;8.138;2023-09-12T03:08:25;108.90;;;56.35;;
20411;SDS011;10365;52.578;8.138;2023-09-12T03:10:55;94.47;;;53.28;;
20411;SDS011;10365;52.578;8.138;2023-09-12T03:13:20;101.20;;;56.00;;
20411;SDS011;10365;52.578;8.138;2023-09-12T03:15:46;97.35;;;52.55;;
20411;SDS011;10365;52.578;8.138;2023-09-12T03:18:11;100.57;;;51.67;;
20411;SDS011;10365;52.578;8.138;2023-09-12T03:20:40;87.40;;;48.60;;
20411;SDS011;10365;52.578;8.138;2023-09-12T03:23:06;101.28;;;53.83;;
20411;SDS011;10365;52.578;8.138;2023-09-12T03:25:35;94.80;;;49.22;;
20411;SDS011;10365;52.578;8.138;2023-09-12T03:28:00;97.80;;;51.30;;
20411;SDS011;10365;52.578;8.138;2023-09-12T03:30:27;94.72;;;48.63;;
20411;SDS011;10365;52.578;8.138;2023-09-12T03:32:53;97.03;;;50.03;;
20411;SDS011;10365;52.578;8.138;2023-09-12T03:35:19;96.00;;;51.17;;
20411;SDS011;10365;52.578;8.138;2023-09-12T03:37:44;90.97;;;49.00;;
20411;SDS011;10365;52.578;8.138;2023-09-12T03:40:10;103.72;;;52.20;;
20411;SDS011;10365;52.578;8.138;2023-09-12T03:42:36;95.38;;;51.05;;
20411;SDS011;10365;52.578;8.138;2023-09-12T03:45:02;95.15;;;51.08;;
20411;SDS011;10365;52.578;8.138;2023-09-12T03:47:28;94.10;;;49.90;;
20411;SDS011;10365;52.578;8.138;2023-09-12T03:49:54;86.80;;;45.42;;
20411;SDS011;10365;52.578;8.138;2023-09-12T03:52:19;86.15;;;47.63;;
20411;SDS011;10365;52.578;8.138;2023-09-12T03:54:45;97.03;;;47.97;;
20411;SDS011;10365;52.578;8.138;2023-09-12T03:57:10;95.57;;;49.28;;
20411;SDS011;10365;52.578;8.138;2023-09-12T03:59:35;94.22;;;48.10;;
20411;SDS011;10365;52.578;8.138;2023-09-12T04:02:02;96.30;;;49.38;;
20411;SDS011;10365;52.578;8.138;2023-09-12T04:04:28;89.88;;;46.65;;
20411;SDS011;10365;52.578;8.138;2023-09-12T04:06:53;88.35;;;45.75;;
20411;SDS011;10365;52.578;8.138;2023-09-12T04:09:20;88.63;;;45.20;;
20411;SDS011;10365;52.578;8.138;2023-09-12T04:11:45;76.03;;;43.17;;
20411;SDS011;10365;52.578;8.138;2023-09-12T04:14:11;79.03;;;39.83;;
20411;SDS011;10365;52.578;8.138;2023-09-12T04:16:36;70.93;;;39.60;;
20411;SDS011;10365;52.578;8.138;2023-09-12T04:19:02;74.95;;;40.33;;
20411;SDS011;10365;52.578;8.138;2023-09-12T04:21:29;60.22;;;34.75;;
20411;SDS011;10365;52.578;8.138;2023-09-12T04:23:54;61.58;;;33.88;;
20411;SDS011;10365;52.578;8.138;2023-09-12T04:26:20;55.03;;;32.42;;
20411;SDS011;10365;52.578;8.138;2023-09-12T04:28:52;54.25;;;31.75;;
20411;SDS011;10365;52.578;8.138;2023-09-12T04:31:17;51.35;;;31.23;;
20411;SDS011;10365;52.578;8.138;2023-09-12T04:33:43;52.42;;;30.00;;
20411;SDS011;10365;52.578;8.138;2023-09-12T04:36:09;46.72;;;28.00;;
20411;SDS011;10365;52.578;8.138;2023-09-12T04:38:34;47.35;;;28.20;;
20411;SDS011;10365;52.578;8.138;2023-09-12T04:41:01;47.92;;;28.60;;
20411;SDS011;10365;52.578;8.138;2023-09-12T04:43:31;42.50;;;25.92;;
20411;SDS011;10365;52.578;8.138;2023-09-12T04:45:57;54.50;;;28.30;;
20411;SDS011;10365;52.578;8.138;2023-09-12T04:48:22;45.15;;;27.20;;
20411;SDS011;10365;52.578;8.138;2023-09-12T04:50:48;43.47;;;26.10;;
20411;SDS011;10365;52.578;8.138;2023-09-12T04:53:14;37.60;;;23.00;;
20411;SDS011;10365;52.578;8.138;2023-09-12T04:55:40;38.92;;;22.95;;
20411;SDS011;10365;52.578;8.138;2023-09-12T04:58:06;38.25;;;23.65;;
20411;SDS011;10365;52.578;8.138;2023-09-12T05:00:32;39.22;;;23.92;;
20411;SDS011;10365;52.578;8.138;2023-09-12T05:02:57;37.25;;;23.60;;
20411;SDS011;10365;52.578;8.138;2023-09-12T05:05:25;32.78;;;20.83;;
20411;SDS011;10365;52.578;8.138;2023-09-12T05:07:51;32.35;;;20.83;;
20411;SDS011;10365;52.578;8.138;2023-09-12T05:10:16;32.55;;;21.90;;
20411;SDS011;10365;52.578;8.138;2023-09-12T05:12:43;34.25;;;22.35;;
20411;SDS011;10365;52.578;8.138;2023-09-12T05:15:08;37.13;;;23.08;;
20411;SDS011;10365;52.578;8.138;2023-09-12T05:17:34;38.03;;;24.23;;
20411;SDS011;10365;52.578;8.138;2023-09-12T05:19:59;38.72;;;22.65;;
20411;SDS011;10365;52.578;8.138;2023-09-12T05:22:25;38.70;;;23.05;;
20411;SDS011;10365;52.578;8.138;2023-09-12T05:24:50;38.03;;;22.63;;
20411;SDS011;10365;52.578;8.138;2023-09-12T05:27:16;35.58;;;22.52;;
20411;SDS011;10365;52.578;8.138;2023-09-12T05:29:44;42.08;;;25.95;;
20411;SDS011;10365;52.578;8.138;2023-09-12T05:32:09;41.38;;;25.88;;
20411;SDS011;10365;52.578;8.138;2023-09-12T05:34:35;41.70;;;26.27;;
20411;SDS011;10365;52.578;8.138;2023-09-12T05:37:00;42.60;;;26.80;;
20411;SDS011;10365;52.578;8.138;2023-09-12T05:39:25;46.25;;;26.85;;
20411;SDS011;10365;52.578;8.138;2023-09-12T05:41:51;50.28;;;29.40;;
20411;SDS011;10365;52.578;8.138;2023-09-12T05:44:16;42.35;;;26.77;;
20411;SDS011;10365;52.578;8.138;2023-09-12T05:46:47;59.60;;;33.40;;
20411;SDS011;10365;52.578;8.138;2023-09-12T05:49:13;56.70;;;31.95;;
20411;SDS011;10365;52.578;8.138;2023-09-12T05:51:40;64.65;;;34.88;;
20411;SDS011;10365;52.578;8.138;2023-09-12T05:54:06;70.47;;;36.10;;
20411;SDS011;10365;52.578;8.138;2023-09-12T05:56:31;73.72;;;38.38;;
20411;SDS011;10365;52.578;8.138;2023-09-12T05:58:56;68.72;;;38.97;;
20411;SDS011;10365;52.578;8.138;2023-09-12T06:01:22;73.95;;;38.25;;
20411;SDS011;10365;52.578;8.138;2023-09-12T06:03:47;75.53;;;37.88;;
20411;SDS011;10365;52.578;8.138;2023-09-12T06:06:12;62.85;;;33.50;;
20411;SDS011;10365;52.578;8.138;2023-09-12T06:08:38;63.30;;;34.20;;
20411;SDS011;10365;52.578;8.138;2023-09-12T06:11:03;68.45;;;36.00;;
20411;SDS011;10365;52.578;8.138;2023-09-12T06:13:29;68.88;;;35.55;;
20411;SDS011;10365;52.578;8.138;2023-09-12T06:15:55;62.70;;;32.50;;
20411;SDS011;10365;52.578;8.138;2023-09-12T06:18:21;63.00;;;33.65;;
20411;SDS011;10365;52.578;8.138;2023-09-12T06:20:46;64.97;;;32.03;;
20411;SDS011;10365;52.578;8.138;2023-09-12T06:23:12;67.60;;;33.83;;
20411;SDS011;10365;52.578;8.138;2023-09-12T06:25:37;54.58;;;31.60;;
20411;SDS011;10365;52.578;8.138;2023-09-12T06:28:03;55.75;;;31.77;;
20411;SDS011;10365;52.578;8.138;2023-09-12T06:30:28;61.90;;;34.63;;
20411;SDS011;10365;52.578;8.138;2023-09-12T06:32:53;57.63;;;32.60;;
20411;SDS011;10365;52.578;8.138;2023-09-12T06:35:19;60.35;;;34.08;;
20411;SDS011;10365;52.578;8.138;2023-09-12T06:37:44;54.75;;;33.53;;
20411;SDS011;10365;52.578;8.138;2023-09-12T06:40:09;59.83;;;32.20;;
20411;SDS011;10365;52.578;8.138;2023-09-12T06:42:35;62.45;;;32.50;;
20411;SDS011;10365;52.578;8.138;2023-09-12T06:45:00;58.03;;;31.50;;
20411;SDS011;10365;52.578;8.138;2023-09-12T06:47:26;56.13;;;30.92;;
20411;SDS011;10365;52.578;8.138;2023-09-12T06:49:51;55.10;;;31.20;;
20411;SDS011;10365;52.578;8.138;2023-09-12T06:52:16;59.85;;;33.05;;
20411;SDS011;10365;52.578;8.138;2023-09-12T06:54:42;55.47;;;31.15;;
20411;SDS011;10365;52.578;8.138;2023-09-12T06:57:07;52.63;;;32.60;;
20411;SDS011;10365;52.578;8.138;2023-09-12T06:59:33;63.00;;;33.50;;
20411;SDS011;10365;52.578;8.138;2023-09-12T07:01:58;55.58;;;31.73;;
20411;SDS011;10365;52.578;8.138;2023-09-12T07:04:24;61.47;;;33.97;;
20411;SDS011;10365;52.578;8.138;2023-09-12T07:06:50;62.40;;;35.05;;
20411;SDS011;10365;52.578;8.138;2023-09-12T07:09:16;72.20;;;38.08;;
20411;SDS011;10365;52.578;8.138;2023-09-12T07:11:42;87.82;;;44.38;;
20411;SDS011;10365;52.578;8.138;2023-09-12T07:14:07;87.38;;;45.22;;
20411;SDS011;10365;52.578;8.138;2023-09-12T07:16:33;95.28;;;45.83;;
20411;SDS011;10365;52.578;8.138;2023-09-12T07:18:59;82.88;;;44.20;;
20411;SDS011;10365;52.578;8.138;2023-09-12T07:21:24;77.18;;;40.33;;
20411;SDS011;10365;52.578;8.138;2023-09-12T07:23:50;65.20;;;38.90;;
20411;SDS011;10365;52.578;8.138;2023-09-12T07:26:15;68.22;;;38.22;;
20411;SDS011;10365;52.578;8.138;2023-09-12T07:28:41;61.00;;;36.63;;
20411;SDS011;10365;52.578;8.138;2023-09-12T07:31:06;53.22;;;33.92;;
20411;SDS011;10365;52.578;8.138;2023-09-12T07:33:32;55.58;;;35.08;;
20411;SDS011;10365;52.578;8.138;2023-09-12T07:35:57;53.28;;;33.55;;
20411;SDS011;10365;52.578;8.138;2023-09-12T07:38:24;53.47;;;31.77;;
20411;SDS011;10365;52.578;8.138;2023-09-12T07:40:50;43.88;;;30.40;;
20411;SDS011;10365;52.578;8.138;2023-09-12T07:43:16;44.25;;;29.73;;
20411;SDS011;10365;52.578;8.138;2023-09-12T07:45:41;45.78;;;29.30;;
20411;SDS011;10365;52.578;8.138;2023-09-12T07:48:07;44.88;;;28.45;;
20411;SDS011;10365;52.578;8.138;2023-09-12T07:50:33;44.00;;;27.63;;
20411;SDS011;10365;52.578;8.138;2023-09-12T07:52:58;41.50;;;27.10;;
20411;SDS011;10365;52.578;8.138;2023-09-12T07:55:24;45.55;;;29.02;;
20411;SDS011;10365;52.578;8.138;2023-09-12T07:57:49;46.30;;;28.73;;
20411;SDS011;10365;52.578;8.138;2023-09-12T08:00:14;48.60;;;31.33;;
20411;SDS011;10365;52.578;8.138;2023-09-12T08:02:41;47.90;;;30.50;;
20411;SDS011;10365;52.578;8.138;2023-09-12T08:05:07;50.33;;;31.27;;
20411;SDS011;10365;52.578;8.138;2023-09-12T08:07:33;51.10;;;30.88;;
20411;SDS011;10365;52.578;8.138;2023-09-12T08:09:59;49.90;;;32.30;;
20411;SDS011;10365;52.578;8.138;2023-09-12T08:12:26;51.25;;;31.38;;
20411;SDS011;10365;52.578;8.138;2023-09-12T08:14:52;45.97;;;29.20;;
20411;SDS011;10365;52.578;8.138;2023-09-12T08:17:17;50.53;;;30.75;;
20411;SDS011;10365;52.578;8.138;2023-09-12T08:19:43;50.50;;;29.98;;
20411;SDS011;10365;52.578;8.138;2023-09-12T08:22:09;47.33;;;28.38;;
20411;SDS011;10365;52.578;8.138;2023-09-12T08:24:35;38.88;;;26.40;;
20411;SDS011;10365;52.578;8.138;2023-09-12T08:27:01;43.50;;;26.00;;
20411;SDS011;10365;52.578;8.138;2023-09-12T08:29:30;45.80;;;28.05;;
20411;SDS011;10365;52.578;8.138;2023-09-12T08:31:57;36.47;;;24.70;;
20411;SDS011;10365;52.578;8.138;2023-09-12T08:34:23;48.03;;;28.50;;
20411;SDS011;10365;52.578;8.138;2023-09-12T08:36:48;43.05;;;27.85;;
20411;SDS011;10365;52.578;8.138;2023-09-12T08:39:15;51.60;;;28.83;;
20411;SDS011;10365;52.578;8.138;2023-09-12T08:41:41;53.40;;;28.90;;
20411;SDS011;10365;52.578;8.138;2023-09-12T08:44:07;46.60;;;27.58;;
20411;SDS011;10365;52.578;8.138;2023-09-12T08:46:32;44.88;;;28.70;;
20411;SDS011;10365;52.578;8.138;2023-09-12T08:48:57;43.88;;;28.10;;
20411;SDS011;10365;52.578;8.138;2023-09-12T08:51:24;46.80;;;28.38;;
20411;SDS011;10365;52.578;8.138;2023-09-12T08:53:50;45.78;;;27.90;;
20411;SDS011;10365;52.578;8.138;2023-09-12T08:56:16;46.55;;;27.70;;
20411;SDS011;10365;52.578;8.138;2023-09-12T08:58:43;43.88;;;26.70;;
20411;SDS011;10365;52.578;8.138;2023-09-12T09:01:08;43.65;;;26.75;;
20411;SDS011;10365;52.578;8.138;2023-09-12T09:03:36;46.53;;;25.88;;
20411;SDS011;10365;52.578;8.138;2023-09-12T09:06:02;40.83;;;25.50;;
20411;SDS011;10365;52.578;8.138;2023-09-12T09:08:27;42.20;;;26.48;;
20411;SDS011;10365;52.578;8.138;2023-09-12T09:10:59;38.60;;;25.42;;
20411;SDS011;10365;52.578;8.138;2023-09-12T09:13:28;41.47;;;25.25;;
20411;SDS011;10365;52.578;8.138;2023-09-12T09:16:15;43.42;;;25.58;;
20411;SDS011;10365;52.578;8.138;2023-09-12T09:21:18;44.38;;;25.85;;
20411;SDS011;10365;52.578;8.138;2023-09-12T09:23:45;39.85;;;25.55;;
20411;SDS011;10365;52.578;8.138;2023-09-12T09:26:11;38.13;;;24.77;;
20411;SDS011;10365;52.578;8.138;2023-09-12T09:28:36;38.58;;;24.27;;
20411;SDS011;10365;52.578;8.138;2023-09-12T09:31:02;40.40;;;24.67;;
20411;SDS011;10365;52.578;8.138;2023-09-12T09:33:31;39.83;;;23.55;;
20411;SDS011;10365;52.578;8.138;2023-09-12T09:36:03;34.53;;;23.17;;
20411;SDS011;10365;52.578;8.138;2023-09-12T09:38:29;38.22;;;23.70;;
20411;SDS011;10365;52.578;8.138;2023-09-12T09:40:55;39.28;;;24.92;;
20411;SDS011;10365;52.578;8.138;2023-09-12T09:43:21;35.60;;;24.83;;
20411;SDS011;10365;52.578;8.138;2023-09-12T09:45:46;38.22;;;23.63;;
20411;SDS011;10365;52.578;8.138;2023-09-12T09:48:22;45.28;;;27.38;;
20411;SDS011;10365;52.578;8.138;2023-09-12T09:50:47;42.08;;;27.42;;
20411;SDS011;10365;52.578;8.138;2023-09-12T09:53:13;45.83;;;26.80;;
20411;SDS011;10365;52.578;8.138;2023-09-12T09:55:39;47.20;;;28.67;;
20411;SDS011;10365;52.578;8.138;2023-09-12T09:58:07;47.00;;;28.00;;
20411;SDS011;10365;52.578;8.138;2023-09-12T10:00:33;48.55;;;27.88;;
20411;SDS011;10365;52.578;8.138;2023-09-12T10:02:59;52.72;;;29.55;;
20411;SDS011;10365;52.578;8.138;2023-09-12T10:05:24;59.28;;;32.67;;
20411;SDS011;10365;52.578;8.138;2023-09-12T10:07:50;50.67;;;32.17;;
20411;SDS011;10365;52.578;8.138;2023-09-12T10:10:18;50.65;;;31.08;;
20411;SDS011;10365;52.578;8.138;2023-09-12T10:13:05;57.80;;;35.60;;
20411;SDS011;10365;52.578;8.138;2023-09-12T10:15:30;50.13;;;31.73;;
20411;SDS011;10365;52.578;8.138;2023-09-12T10:17:59;47.85;;;29.27;;
20411;SDS011;10365;52.578;8.138;2023-09-12T10:20:26;53.75;;;30.20;;
20411;SDS011;10365;52.578;8.138;2023-09-12T10:23:00;47.78;;;30.98;;
20411;SDS011;10365;52.578;8.138;2023-09-12T10:25:28;47.15;;;28.45;;
20411;SDS011;10365;52.578;8.138;2023-09-12T10:27:53;45.92;;;27.90;;
20411;SDS011;10365;52.578;8.138;2023-09-12T10:30:19;44.55;;;27.77;;
20411;SDS011;10365;52.578;8.138;2023-09-12T10:32:45;46.70;;;29.30;;
20411;SDS011;10365;52.578;8.138;2023-09-12T10:35:12;48.63;;;27.80;;
20411;SDS011;10365;52.578;8.138;2023-09-12T10:37:37;41.55;;;27.90;;
20411;SDS011;10365;52.578;8.138;2023-09-12T10:40:03;30.77;;;22.45;;
20411;SDS011;10365;52.578;8.138;2023-09-12T10:42:31;29.20;;;20.75;;
20411;SDS011;10365;52.578;8.138;2023-09-12T10:44:57;22.80;;;17.58;;
20411;SDS011;10365;52.578;8.138;2023-09-12T10:47:24;20.52;;;15.20;;
20411;SDS011;10365;52.578;8.138;2023-09-12T10:49:50;17.90;;;14.05;;
20411;SDS011;10365;52.578;8.138;2023-09-12T10:52:25;16.08;;;13.40;;
20411;SDS011;10365;52.578;8.138;2023-09-12T10:54:51;17.92;;;13.68;;
20411;SDS011;10365;52.578;8.138;2023-09-12T10:57:17;16.67;;;13.65;;
20411;SDS011;10365;52.578;8.138;2023-09-12T11:00:16;16.55;;;13.10;;
20411;SDS011;10365;52.578;8.138;2023-09-12T11:02:36;18.23;;;13.48;;
20411;SDS011;10365;52.578;8.138;2023-09-12T11:05:02;17.27;;;13.68;;
20411;SDS011;10365;52.578;8.138;2023-09-12T11:12:41;15.30;;;12.70;;
20411;SDS011;10365;52.578;8.138;2023-09-12T11:15:07;18.35;;;11.00;;
20411;SDS011;10365;52.578;8.138;2023-09-12T11:17:40;15.68;;;11.68;;
20411;SDS011;10365;52.578;8.138;2023-09-12T11:20:06;12.88;;;11.05;;
20411;SDS011;10365;52.578;8.138;2023-09-12T11:22:44;16.27;;;12.60;;
20411;SDS011;10365;52.578;8.138;2023-09-12T11:25:20;13.05;;;10.82;;
20411;SDS011;10365;52.578;8.138;2023-09-12T11:30:17;16.38;;;11.90;;
20411;SDS011;10365;52.578;8.138;2023-09-12T11:32:43;12.98;;;10.93;;
20411;SDS011;10365;52.578;8.138;2023-09-12T11:35:09;14.02;;;10.07;;
20411;SDS011;10365;52.578;8.138;2023-09-12T11:37:35;13.95;;;10.50;;
20411;SDS011;10365;52.578;8.138;2023-09-12T11:40:15;13.45;;;9.70;;
20411;SDS011;10365;52.578;8.138;2023-09-12T11:42:42;11.32;;;9.00;;
20411;SDS011;10365;52.578;8.138;2023-09-12T11:45:08;10.85;;;8.60;;
20411;SDS011;10365;52.578;8.138;2023-09-12T11:47:33;10.68;;;8.38;;
20411;SDS011;10365;52.578;8.138;2023-09-12T11:49:59;9.63;;;8.57;;
20411;SDS011;10365;52.578;8.138;2023-09-12T11:52:24;10.60;;;8.57;;
20411;SDS011;10365;52.578;8.138;2023-09-12T11:54:50;10.15;;;8.45;;
20411;SDS011;10365;52.578;8.138;2023-09-12T11:57:15;11.68;;;8.60;;
20411;SDS011;10365;52.578;8.138;2023-09-12T11:59:41;13.05;;;8.40;;
20411;SDS011;10365;52.578;8.138;2023-09-12T12:02:08;10.13;;;7.45;;
20411;SDS011;10365;52.578;8.138;2023-09-12T12:04:34;11.23;;;7.53;;
20411;SDS011;10365;52.578;8.138;2023-09-12T12:06:59;11.45;;;8.23;;
20411;SDS011;10365;52.578;8.138;2023-09-12T12:09:25;12.43;;;8.98;;
20411;SDS011;10365;52.578;8.138;2023-09-12T12:11:51;9.88;;;8.50;;
20411;SDS011;10365;52.578;8.138;2023-09-12T12:14:17;12.10;;;9.40;;
20411;SDS011;10365;52.578;8.138;2023-09-12T12:16:45;12.40;;;9.32;;
20411;SDS011;10365;52.578;8.138;2023-09-12T12:19:10;10.30;;;9.10;;
20411;SDS011;10365;52.578;8.138;2023-09-12T12:21:42;12.10;;;9.60;;
20411;SDS011;10365;52.578;8.138;2023-09-12T12:24:08;11.20;;;9.30;;
20411;SDS011;10365;52.578;8.138;2023-09-12T12:26:33;10.75;;;8.80;;
20411;SDS011;10365;52.578;8.138;2023-09-12T12:29:02;11.43;;;8.43;;
20411;SDS011;10365;52.578;8.138;2023-09-12T12:31:28;13.25;;;7.78;;
20411;SDS011;10365;52.578;8.138;2023-09-12T12:33:53;14.18;;;8.05;;
20411;SDS011;10365;52.578;8.138;2023-09-12T12:36:19;15.00;;;8.60;;
20411;SDS011;10365;52.578;8.138;2023-09-12T12:38:45;9.52;;;8.13;;
20411;SDS011;10365;52.578;8.138;2023-09-12T12:41:11;13.40;;;6.97;;
20411;SDS011;10365;52.578;8.138;2023-09-12T12:43:39;9.13;;;7.05;;
20411;SDS011;10365;52.578;8.138;2023-09-12T12:46:04;11.35;;;8.00;;
20411;SDS011;10365;52.578;8.138;2023-09-12T12:48:35;8.90;;;7.05;;
20411;SDS011;10365;52.578;8.138;2023-09-12T12:51:16;10.00;;;6.72;;
20411;SDS011;10365;52.578;8.138;2023-09-12T12:53:43;9.02;;;5.97;;
20411;SDS011;10365;52.578;8.138;2023-09-12T12:56:11;8.00;;;6.50;;
20411;SDS011;10365;52.578;8.138;2023-09-12T12:58:37;9.52;;;6.63;;
20411;SDS011;10365;52.578;8.138;2023-09-12T13:01:02;8.20;;;5.88;;
20411;SDS011;10365;52.578;8.138;2023-09-12T13:03:28;6.88;;;6.10;;
20411;SDS011;10365;52.578;8.138;2023-09-12T13:05:53;7.47;;;5.70;;
20411;SDS011;10365;52.578;8.138;2023-09-12T13:08:18;6.32;;;5.00;;
20411;SDS011;10365;52.578;8.138;2023-09-12T13:10:44;7.72;;;6.28;;
20411;SDS011;10365;52.578;8.138;2023-09-12T13:13:10;8.43;;;6.13;;
20411;SDS011;10365;52.578;8.138;2023-09-12T13:15:35;6.53;;;5.57;;
20411;SDS011;10365;52.578;8.138;2023-09-12T13:18:01;7.63;;;5.90;;
20411;SDS011;10365;52.578;8.138;2023-09-12T13:20:26;7.97;;;5.63;;
20411;SDS011;10365;52.578;8.138;2023-09-12T13:22:51;10.00;;;6.15;;
20411;SDS011;10365;52.578;8.138;2023-09-12T13:25:17;9.05;;;7.32;;
20411;SDS011;10365;52.578;8.138;2023-09-12T13:27:42;8.70;;;7.18;;
20411;SDS011;10365;52.578;8.138;2023-09-12T13:30:07;7.40;;;6.70;;
20411;SDS011;10365;52.578;8.138;2023-09-12T13:32:33;7.43;;;6.20;;
20411;SDS011;10365;52.578;8.138;2023-09-12T13:34:58;8.95;;;7.40;;
20411;SDS011;10365;52.578;8.138;2023-09-12T13:37:24;8.88;;;7.10;;
20411;SDS011;10365;52.578;8.138;2023-09-12T13:39:49;11.20;;;7.10;;
20411;SDS011;10365;52.578;8.138;2023-09-12T13:42:18;8.73;;;7.22;;
20411;SDS011;10365;52.578;8.138;2023-09-12T13:44:45;10.10;;;7.47;;
20411;SDS011;10365;52.578;8.138;2023-09-12T13:47:10;9.98;;;6.93;;
20411;SDS011;10365;52.578;8.138;2023-09-12T13:49:35;9.20;;;7.63;;
20411;SDS011;10365;52.578;8.138;2023-09-12T13:52:01;9.55;;;7.70;;
20411;SDS011;10365;52.578;8.138;2023-09-12T13:54:27;9.68;;;7.72;;
20411;SDS011;10365;52.578;8.138;2023-09-12T13:56:52;10.57;;;7.82;;
20411;SDS011;10365;52.578;8.138;2023-09-12T13:59:18;8.68;;;6.63;;
20411;SDS011;10365;52.578;8.138;2023-09-12T14:01:45;8.88;;;6.90;;
20411;SDS011;10365;52.578;8.138;2023-09-12T14:04:11;14.95;;;7.55;;
20411;SDS011;10365;52.578;8.138;2023-09-12T14:06:36;8.43;;;6.88;;
20411;SDS011;10365;52.578;8.138;2023-09-12T14:09:01;9.77;;;6.47;;
20411;SDS011;10365;52.578;8.138;2023-09-12T14:11:27;8.63;;;6.75;;
20411;SDS011;10365;52.578;8.138;2023-09-12T14:13:52;9.05;;;6.18;;
20411;SDS011;10365;52.578;8.138;2023-09-12T14:16:17;9.38;;;6.20;;
20411;SDS011;10365;52.578;8.138;2023-09-12T14:18:43;14.20;;;7.72;;
20411;SDS011;10365;52.578;8.138;2023-09-12T14:21:08;9.02;;;6.50;;
20411;SDS011;10365;52.578;8.138;2023-09-12T14:23:33;10.38;;;6.53;;
20411;SDS011;10365;52.578;8.138;2023-09-12T14:25:58;8.57;;;6.78;;
20411;SDS011;10365;52.578;8.138;2023-09-12T14:28:25;8.82;;;6.95;;
20411;SDS011;10365;52.578;8.138;2023-09-12T14:30:52;9.23;;;7.07;;
20411;SDS011;10365;52.578;8.138;2023-09-12T14:33:17;9.00;;;7.22;;
20411;SDS011;10365;52.578;8.138;2023-09-12T14:35:43;7.78;;;5.90;;
20411;SDS011;10365;52.578;8.138;2023-09-12T14:38:09;13.23;;;6.65;;
20411;SDS011;10365;52.578;8.138;2023-09-12T14:40:35;10.77;;;5.78;;